Robert E. Mcallister — WDC8669 — position and weather

sailwx.info

Track history (hours):
 
Tides and Currents Weather Stations Pressure Air Temp Water Temp Dewpoint Dewpoint Depression Visibility Wind Speed Wind Dir Waves Ship Positions

Robert E. Mcallister

Owner: McAllister Towing & Transportation, Staten Island, NY. More information available from US FCC via Universal Licensing System and Coast Guard Vessel Documentation Center.

Last reported at 2018-Jun-18 01:00 UTC. Time now 2018-Jun-18 01:23 UTC.
Position N 39°50' W 075°23'.

; draft 4.3 m.

Type: Tug. MMSI: 367091120.

Date/timePositionNaut miles runAvg speedWind from/ knotsBaromVisibWave heightAir tempDewpointWater temp
2018-Jun-18 01:00N 39°50' W 075°23'0 0.0
2018-Jun-18 00:30N 39°50' W 075°23'0 0.0
2018-Jun-18 00:01N 39°50' W 075°23'0 0.0
2018-Jun-17 23:30N 39°50' W 075°23'0 0.0
2018-Jun-17 23:00N 39°50' W 075°23'0 0.0
2018-Jun-17 22:30N 39°50' W 075°23'0 0.0
2018-Jun-17 22:00N 39°50' W 075°23'0 0.0
2018-Jun-17 21:31N 39°50' W 075°23'0 0.0
2018-Jun-17 21:00N 39°50' W 075°23'1 2.1
2018-Jun-17 20:30N 39°50' W 075°22'510.3
2018-Jun-17 20:00N 39°51' W 075°15'1 1.6
2018-Jun-17 19:31N 39°51' W 075°14'1 2.7
2018-Jun-17 19:00N 39°51' W 075°16'4 7.3
2018-Jun-17 18:31N 39°51' W 075°21'2 4.2
2018-Jun-17 18:01N 39°50' W 075°23'1 2.3
2018-Jun-17 17:29N 39°49' W 075°24'0 0.2
2018-Jun-17 17:00N 39°49' W 075°24'1 1.4
2018-Jun-17 16:06N 39°50' W 075°23'0 0.1
2018-Jun-17 16:00N 39°50' W 075°23'0 0.0
2018-Jun-17 15:30N 39°50' W 075°23'0 0.0
2018-Jun-17 15:00N 39°50' W 075°23'0 0.0
2018-Jun-17 14:30N 39°50' W 075°23'0 0.0
2018-Jun-17 14:00N 39°50' W 075°23'0 0.0
2018-Jun-17 13:31N 39°50' W 075°23'0 0.0
2018-Jun-17 13:00N 39°50' W 075°23'0 0.0
2018-Jun-17 12:30N 39°50' W 075°23'0 0.0
2018-Jun-17 12:00N 39°50' W 075°23'0 0.0
2018-Jun-17 11:30N 39°50' W 075°23'1 2.7
2018-Jun-17 11:00N 39°50' W 075°21'611.6
2018-Jun-17 10:30N 39°52' W 075°14'510.3
2018-Jun-17 10:00N 39°54' W 075°08'0 0.6
2018-Jun-17 09:30N 39°54' W 075°08'0 0.8
2018-Jun-17 09:00N 39°54' W 075°08'1 2.9
2018-Jun-17 08:31N 39°53' W 075°10'1 2.3
2018-Jun-17 08:00N 39°53' W 075°11'0 0.0
2018-Jun-17 07:30N 39°53' W 075°11'0 0.0
2018-Jun-17 07:00N 39°53' W 075°11'0 0.0
2018-Jun-17 06:30N 39°53' W 075°11'0 0.0
2018-Jun-17 06:00N 39°53' W 075°11'0 0.0
2018-Jun-17 05:31N 39°53' W 075°11'0 0.0
2018-Jun-17 05:00N 39°53' W 075°11'0 0.0
2018-Jun-17 04:31N 39°53' W 075°11'0 0.0
2018-Jun-17 04:00N 39°53' W 075°11'0 0.0
2018-Jun-17 03:30N 39°53' W 075°11'0 0.0
2018-Jun-17 03:00N 39°53' W 075°11'1 2.2
2018-Jun-17 02:30N 39°52' W 075°12'2 3.6
2018-Jun-17 02:00N 39°51' W 075°14'0 0.9
2018-Jun-17 01:30N 39°52' W 075°14'0 0.0
2018-Jun-17 01:01N 39°52' W 075°14'5 9.0
2018-Jun-17 00:30N 39°53' W 075°09'1 2.3
2018-Jun-17 00:01N 39°54' W 075°08'1 1.1
2018-Jun-16 23:30N 39°54' W 075°08'4 8.8
2018-Jun-16 23:00N 39°52' W 075°14'5 9.2
2018-Jun-16 22:31N 39°51' W 075°19'4 8.6
2018-Jun-16 22:00N 39°49' W 075°24'610.6
2018-Jun-16 21:27N 39°45' W 075°30'2 3.9
2018-Jun-16 20:59N 39°43' W 075°31'0 0.0
2018-Jun-16 20:31N 39°43' W 075°31'0 0.8
2018-Jun-16 20:00N 39°43' W 075°30'1 0.4
2018-Jun-16 18:25N 39°43' W 075°31'0 0.0
2018-Jun-16 16:20N 39°43' W 075°31'0 0.0
2018-Jun-16 15:43N 39°43' W 075°31'0 1.4
2018-Jun-16 15:30N 39°43' W 075°31'2 4.1
2018-Jun-16 15:00N 39°41' W 075°31'1 2.2
2018-Jun-16 14:30N 39°42' W 075°31'1 0.9
2018-Jun-16 13:57N 39°43' W 075°31'2 4.6
2018-Jun-16 13:30N 39°44' W 075°30'5 8.8
2018-Jun-16 12:55N 39°48' W 075°25'2 5.5
2018-Jun-16 12:30N 39°50' W 075°23'0 0.0
2018-Jun-16 12:00N 39°50' W 075°23'0 0.0
2018-Jun-16 11:30N 39°50' W 075°23'0 0.0
2018-Jun-16 11:01N 39°50' W 075°23'0 0.0
2018-Jun-16 10:31N 39°50' W 075°23'0 0.0
2018-Jun-16 10:00N 39°50' W 075°23'0 0.0
2018-Jun-16 09:31N 39°50' W 075°23'0 0.0
2018-Jun-16 09:00N 39°50' W 075°23'0 0.0
2018-Jun-16 08:31N 39°50' W 075°23'0 0.0
2018-Jun-16 08:00N 39°50' W 075°23'0 0.0
2018-Jun-16 07:31N 39°50' W 075°23'0 0.0
2018-Jun-16 07:01N 39°50' W 075°23'0 0.0
2018-Jun-16 06:30N 39°50' W 075°23'0 0.0
2018-Jun-16 06:01N 39°50' W 075°23'0 0.0
2018-Jun-16 05:30N 39°50' W 075°23'0 0.0
2018-Jun-16 05:00N 39°50' W 075°23'0 0.0
2018-Jun-16 04:29N 39°50' W 075°23'0 0.0
2018-Jun-16 04:00N 39°50' W 075°23'0 0.0
2018-Jun-16 03:30N 39°50' W 075°23'0 0.0
2018-Jun-16 03:00N 39°50' W 075°23'0 0.0
2018-Jun-16 02:30N 39°50' W 075°23'0 0.0
2018-Jun-16 02:00N 39°50' W 075°23'0 0.0
2018-Jun-16 01:30N 39°50' W 075°23'0 0.0
2018-Jun-16 01:00N 39°50' W 075°23'0 0.0
2018-Jun-16 00:30N 39°50' W 075°23'0 0.0
2018-Jun-16 00:00N 39°50' W 075°23'0 0.0
2018-Jun-15 23:31N 39°50' W 075°23'5 8.9
2018-Jun-15 22:56N 39°46' W 075°28'4 9.7
2018-Jun-15 22:30N 39°43' W 075°31'0 0.2
2018-Jun-15 21:58N 39°43' W 075°31'0 0.3
2018-Jun-15 21:30N 39°42' W 075°31'5 9.1
2018-Jun-15 21:01N 39°46' W 075°28'4 8.6
2018-Jun-15 20:30N 39°49' W 075°24'1 1.2
2018-Jun-15 19:56N 39°50' W 075°23'0 0.0
2018-Jun-15 19:30N 39°50' W 075°23'0 0.0
2018-Jun-15 19:00N 39°50' W 075°23'0 0.0
2018-Jun-15 18:30N 39°50' W 075°23'1 1.1
2018-Jun-15 18:00N 39°50' W 075°22'4 8.2
2018-Jun-15 17:30N 39°51' W 075°17'4 8.7
2018-Jun-15 17:01N 39°53' W 075°12'1 1.6
2018-Jun-15 16:31N 39°53' W 075°12'0 0.0
2018-Jun-15 16:01N 39°53' W 075°12'0 0.0
2018-Jun-15 15:30N 39°53' W 075°12'0 0.0
2018-Jun-15 15:00N 39°53' W 075°12'0 0.6
2018-Jun-15 14:30N 39°54' W 075°12'2 3.8
2018-Jun-15 14:00N 39°52' W 075°13'5 9.5
2018-Jun-15 13:30N 39°51' W 075°19'3 6.6
2018-Jun-15 13:01N 39°50' W 075°23'0 0.0
2018-Jun-15 12:30N 39°50' W 075°23'0 0.0
2018-Jun-15 12:00N 39°50' W 075°23'0 0.0
2018-Jun-15 11:30N 39°50' W 075°23'0 0.0
2018-Jun-15 11:01N 39°50' W 075°23'0 0.0
2018-Jun-15 10:30N 39°50' W 075°23'0 0.0
2018-Jun-15 10:00N 39°50' W 075°23'0 0.0
2018-Jun-15 09:30N 39°50' W 075°23'0 0.0
2018-Jun-15 09:00N 39°50' W 075°23'0 0.0
2018-Jun-15 08:30N 39°50' W 075°23'0 0.0
2018-Jun-15 08:01N 39°50' W 075°23'0 0.0
2018-Jun-15 07:31N 39°50' W 075°23'0 0.0
2018-Jun-15 07:01N 39°50' W 075°23'0 0.0
2018-Jun-15 06:31N 39°50' W 075°23'3 5.6
2018-Jun-15 06:00N 39°48' W 075°26'611.4
2018-Jun-15 05:31N 39°43' W 075°30'1 1.7
2018-Jun-15 05:01N 39°43' W 075°31'2 3.9
2018-Jun-15 04:30N 39°41' W 075°31'2 3.5
2018-Jun-15 04:00N 39°42' W 075°31'1 1.4
2018-Jun-15 03:30N 39°43' W 075°31'0 0.0
2018-Jun-15 03:00N 39°43' W 075°31'0 0.0
2018-Jun-15 02:30N 39°43' W 075°31'0 0.0
2018-Jun-15 02:00N 39°43' W 075°31'0 0.0
2018-Jun-15 01:30N 39°43' W 075°31'0 0.0
2018-Jun-15 01:00N 39°43' W 075°31'0 0.0
2018-Jun-15 00:30N 39°43' W 075°31'0 0.0
2018-Jun-15 00:00N 39°43' W 075°31'0 0.0
2018-Jun-14 23:30N 39°43' W 075°31'0 0.0
2018-Jun-14 23:00N 39°43' W 075°31'0 0.0
2018-Jun-14 22:29N 39°43' W 075°31'0 0.0
2018-Jun-14 22:00N 39°43' W 075°31'0 0.0
2018-Jun-14 21:30N 39°43' W 075°31'0 0.0
2018-Jun-14 20:59N 39°43' W 075°31'0 0.0
2018-Jun-14 20:30N 39°43' W 075°31'0 0.0
2018-Jun-14 20:00N 39°43' W 075°31'0 0.0
2018-Jun-14 19:30N 39°43' W 075°31'0 0.5
2018-Jun-14 19:00N 39°43' W 075°31'0 0.1
2018-Jun-14 18:30N 39°43' W 075°31'0 0.0
2018-Jun-14 18:00N 39°43' W 075°31'0 0.5
2018-Jun-14 17:30N 39°43' W 075°31'4 7.6
2018-Jun-14 17:00N 39°46' W 075°28'4 8.0
2018-Jun-14 16:30N 39°49' W 075°24'1 2.6
2018-Jun-14 16:00N 39°50' W 075°23'0 0.0
2018-Jun-14 15:30N 39°50' W 075°23'0 0.0
2018-Jun-14 15:00N 39°50' W 075°23'0 0.0
2018-Jun-14 14:30N 39°50' W 075°23'0 0.0
2018-Jun-14 14:00N 39°50' W 075°23'0 0.0
2018-Jun-14 13:30N 39°50' W 075°23'0 0.0
2018-Jun-14 13:00N 39°50' W 075°23'0 0.0
2018-Jun-14 12:30N 39°50' W 075°23'0 0.0
2018-Jun-14 12:00N 39°50' W 075°23'0 0.0
2018-Jun-14 11:31N 39°50' W 075°23'0 0.0
2018-Jun-14 11:00N 39°50' W 075°23'0 0.0
2018-Jun-14 10:30N 39°50' W 075°23'0 0.0
2018-Jun-14 10:00N 39°50' W 075°23'0 0.0
2018-Jun-14 09:30N 39°50' W 075°23'0 0.0
2018-Jun-14 09:00N 39°50' W 075°23'0 0.0
2018-Jun-14 08:30N 39°50' W 075°23'4 8.4
2018-Jun-14 08:00N 39°47' W 075°27'5 9.7
2018-Jun-14 07:30N 39°43' W 075°31'0 0.1
2018-Jun-14 07:00N 39°43' W 075°31'0 0.1
2018-Jun-14 06:30N 39°43' W 075°31'1 1.1
2018-Jun-14 06:00N 39°43' W 075°30'1 1.4
2018-Jun-14 05:29N 39°43' W 075°31'0 0.0
2018-Jun-14 05:00N 39°43' W 075°31'4 7.4
2018-Jun-14 04:30N 39°46' W 075°28'4 9.0
2018-Jun-14 04:00N 39°49' W 075°24'1 1.9
2018-Jun-14 03:30N 39°50' W 075°23'0 0.0
2018-Jun-14 03:00N 39°50' W 075°23'0 0.0
2018-Jun-14 02:30N 39°50' W 075°23'0 0.0
2018-Jun-14 02:00N 39°50' W 075°23'0 0.0
2018-Jun-14 01:30N 39°50' W 075°23'0 0.0
2018-Jun-14 01:00N 39°50' W 075°23'0 0.0
2018-Jun-14 00:30N 39°50' W 075°23'0 0.0
2018-Jun-14 00:01N 39°50' W 075°23'0 0.0
2018-Jun-13 23:31N 39°50' W 075°23'0 0.0
2018-Jun-13 23:00N 39°50' W 075°23'0 0.0
2018-Jun-13 22:30N 39°50' W 075°23'0 0.0
2018-Jun-13 22:00N 39°50' W 075°23'0 0.0
2018-Jun-13 21:30N 39°50' W 075°23'0 0.0
2018-Jun-13 21:00N 39°50' W 075°23'0 0.0
2018-Jun-13 20:30N 39°50' W 075°23'0 0.0
2018-Jun-13 20:01N 39°50' W 075°23'0 0.0
2018-Jun-13 19:30N 39°50' W 075°23'0 0.0
2018-Jun-13 19:00N 39°50' W 075°23'0 0.0
2018-Jun-13 18:30N 39°50' W 075°23'0 0.0
2018-Jun-13 18:00N 39°50' W 075°23'0 0.0
2018-Jun-13 17:31N 39°50' W 075°23'0 0.0
2018-Jun-13 17:00N 39°50' W 075°23'2 4.8
2018-Jun-13 16:30N 39°51' W 075°20'0 0.2
2018-Jun-13 16:00N 39°51' W 075°20'4 7.8
2018-Jun-13 15:30N 39°49' W 075°24'0 0.3
2018-Jun-13 15:00N 39°49' W 075°24'0 0.0
2018-Jun-13 14:30N 39°49' W 075°24'0 0.0
2018-Jun-13 14:00N 39°49' W 075°24'3 5.7
2018-Jun-13 13:30N 39°50' W 075°21'4 8.9
2018-Jun-13 13:00N 39°51' W 075°15'4 7.8
2018-Jun-13 12:30N 39°54' W 075°12'0 0.0
2018-Jun-13 12:00N 39°54' W 075°12'0 0.0
2018-Jun-13 11:30N 39°54' W 075°12'0 0.0
2018-Jun-13 11:00N 39°54' W 075°12'0 0.0
2018-Jun-13 10:30N 39°54' W 075°12'0 0.0
2018-Jun-13 10:00N 39°54' W 075°12'0 0.0
2018-Jun-13 09:30N 39°54' W 075°12'0 0.0
2018-Jun-13 09:00N 39°54' W 075°12'0 0.0
2018-Jun-13 08:30N 39°54' W 075°12'0 0.0
2018-Jun-13 08:01N 39°54' W 075°12'0 0.0
2018-Jun-13 07:30N 39°54' W 075°12'0 0.0
2018-Jun-13 07:01N 39°54' W 075°12'0 0.0
2018-Jun-13 06:30N 39°54' W 075°12'0 0.0
2018-Jun-13 06:00N 39°54' W 075°12'0 0.0
2018-Jun-13 05:30N 39°54' W 075°12'0 0.0
2018-Jun-13 05:00N 39°54' W 075°12'0 0.0
2018-Jun-13 04:30N 39°54' W 075°12'0 0.0
2018-Jun-13 04:00N 39°54' W 075°12'0 0.0
2018-Jun-13 03:30N 39°54' W 075°12'0 0.4
2018-Jun-13 03:00N 39°54' W 075°12'0 0.0
2018-Jun-13 02:30N 39°54' W 075°12'612.0
2018-Jun-13 02:01N 39°51' W 075°19'3 6.9
2018-Jun-13 01:30N 39°50' W 075°23'0 0.0
2018-Jun-13 01:00N 39°50' W 075°23'0 0.0
2018-Jun-13 00:30N 39°50' W 075°23'0 0.0
2018-Jun-13 00:00N 39°50' W 075°23'0 0.0
2018-Jun-12 23:31N 39°50' W 075°23'0 0.0
2018-Jun-12 23:00N 39°50' W 075°23'0 0.0
2018-Jun-12 22:31N 39°50' W 075°23'0 0.0
2018-Jun-12 22:00N 39°50' W 075°23'0 0.0
2018-Jun-12 21:30N 39°50' W 075°23'0 0.0
2018-Jun-12 21:00N 39°50' W 075°23'0 0.0
2018-Jun-12 20:30N 39°50' W 075°23'0 0.0
2018-Jun-12 20:00N 39°50' W 075°23'0 0.0
2018-Jun-12 19:31N 39°50' W 075°23'0 0.0
2018-Jun-12 19:00N 39°50' W 075°23'0 0.0
2018-Jun-12 18:30N 39°50' W 075°23'0 0.0
2018-Jun-12 18:00N 39°50' W 075°23'0 0.0
2018-Jun-12 17:30N 39°50' W 075°23'0 0.0
2018-Jun-12 17:00N 39°50' W 075°23'0 0.0
2018-Jun-12 16:30N 39°50' W 075°23'0 0.0
2018-Jun-12 16:01N 39°50' W 075°23'0 0.0
2018-Jun-12 15:30N 39°50' W 075°23'1 2.9
2018-Jun-12 15:00N 39°49' W 075°24'0 0.1
2018-Jun-12 14:30N 39°49' W 075°24'1 2.5
2018-Jun-12 14:00N 39°48' W 075°26'0 0.9
2018-Jun-12 13:30N 39°48' W 075°25'2 4.4
2018-Jun-12 13:00N 39°50' W 075°23'0 0.0
2018-Jun-12 12:30N 39°50' W 075°23'0 0.0
2018-Jun-12 12:00N 39°50' W 075°23'0 0.0
2018-Jun-12 11:30N 39°50' W 075°23'0 0.0
2018-Jun-12 11:00N 39°50' W 075°23'0 0.0
2018-Jun-12 10:31N 39°50' W 075°23'2 4.8
2018-Jun-12 10:00N 39°51' W 075°20'0 0.2
2018-Jun-12 09:30N 39°51' W 075°20'0 0.5
2018-Jun-12 09:00N 39°51' W 075°21'2 4.3
2018-Jun-12 08:30N 39°49' W 075°23'1 1.2
2018-Jun-12 08:00N 39°50' W 075°22'1 1.1
2018-Jun-12 07:30N 39°50' W 075°22'1 2.4
2018-Jun-12 07:00N 39°50' W 075°23'0 0.0
2018-Jun-12 06:30N 39°50' W 075°23'0 0.0
2018-Jun-12 06:00N 39°50' W 075°23'0 0.0
2018-Jun-12 05:30N 39°50' W 075°23'1 2.3
2018-Jun-12 05:00N 39°50' W 075°22'510.2
2018-Jun-12 04:30N 39°51' W 075°15'2 3.6
2018-Jun-12 04:00N 39°52' W 075°13'0 0.0
2018-Jun-12 03:30N 39°52' W 075°13'0 0.1
2018-Jun-12 03:00N 39°52' W 075°13'1 1.7
2018-Jun-12 02:30N 39°51' W 075°14'0 0.5
2018-Jun-12 02:00N 39°52' W 075°14'611.7
2018-Jun-12 01:30N 39°50' W 075°22'5 9.4
2018-Jun-12 01:00N 39°47' W 075°27'510.8
2018-Jun-12 00:30N 39°43' W 075°30'611.4
2018-Jun-12 00:00N 39°38' W 075°34'3 6.9
2018-Jun-11 23:30N 39°35' W 075°34'1 2.2
2018-Jun-11 23:00N 39°35' W 075°36'0 0.6
2018-Jun-11 22:31N 39°35' W 075°35'0 0.0
2018-Jun-11 22:00N 39°35' W 075°35'0 0.0
2018-Jun-11 21:30N 39°35' W 075°35'0 0.0
2018-Jun-11 21:01N 39°35' W 075°35'0 0.0
2018-Jun-11 20:31N 39°35' W 075°35'0 0.0
2018-Jun-11 20:00N 39°35' W 075°35'0 0.0
2018-Jun-11 19:30N 39°35' W 075°35'0 0.0
2018-Jun-11 19:00N 39°35' W 075°35'0 0.0
2018-Jun-11 18:31N 39°35' W 075°35'0 0.0
2018-Jun-11 18:00N 39°35' W 075°35'0 0.0
2018-Jun-11 17:30N 39°35' W 075°35'0 0.0
2018-Jun-11 17:00N 39°35' W 075°35'0 0.0
2018-Jun-11 16:30N 39°35' W 075°35'0 0.0
2018-Jun-11 16:00N 39°35' W 075°35'0 0.0
2018-Jun-11 15:30N 39°35' W 075°35'0 0.0
2018-Jun-11 15:00N 39°35' W 075°35'0 0.0
2018-Jun-11 14:30N 39°35' W 075°35'0 0.0
2018-Jun-11 14:00N 39°35' W 075°35'0 0.0
2018-Jun-11 13:30N 39°35' W 075°35'0 0.0
2018-Jun-11 13:00N 39°35' W 075°35'0 0.0
2018-Jun-11 12:30N 39°35' W 075°35'0 0.0
2018-Jun-11 12:00N 39°35' W 075°35'0 0.0
2018-Jun-11 11:30N 39°35' W 075°35'0 0.0
2018-Jun-11 11:00N 39°35' W 075°35'0 0.0
2018-Jun-11 10:30N 39°35' W 075°35'0 0.0
2018-Jun-11 10:00N 39°35' W 075°35'0 0.0
2018-Jun-11 09:30N 39°35' W 075°35'0 0.0
2018-Jun-11 09:00N 39°35' W 075°35'0 0.0
2018-Jun-11 08:31N 39°35' W 075°35'0 0.0
2018-Jun-11 08:00N 39°35' W 075°35'0 0.0
2018-Jun-11 07:30N 39°35' W 075°35'0 0.0
2018-Jun-11 07:00N 39°35' W 075°35'0 0.0
2018-Jun-11 06:30N 39°35' W 075°35'0 0.6
2018-Jun-11 06:00N 39°35' W 075°36'2 3.2
2018-Jun-11 05:30N 39°34' W 075°34'1 2.9
2018-Jun-11 05:00N 39°35' W 075°35'0 0.3
2018-Jun-11 04:30N 39°35' W 075°36'0 0.8
2018-Jun-11 04:00N 39°35' W 075°35'1 1.6
2018-Jun-11 03:30N 39°35' W 075°34'1 1.8
2018-Jun-11 03:00N 39°35' W 075°35'1 2.6
2018-Jun-11 02:30N 39°35' W 075°34'4 7.8
2018-Jun-11 02:00N 39°39' W 075°33'814.7
2018-Jun-11 01:27N 39°46' W 075°28'613.2
2018-Jun-11 00:59N 39°50' W 075°22'3 4.8
2018-Jun-11 00:25N 39°51' W 075°18'613.9
2018-Jun-10 23:58N 39°53' W 075°11'2 3.6
2018-Jun-10 23:25N 39°54' W 075°08'1 1.6
2018-Jun-10 22:53N 39°53' W 075°09'1 3.0
2018-Jun-10 22:27N 39°53' W 075°11'0 0.3
2018-Jun-10 21:56N 39°53' W 075°11'0 0.0
2018-Jun-10 21:30N 39°53' W 075°11'0 0.0
2018-Jun-10 20:55N 39°53' W 075°11'0 0.0
2018-Jun-10 20:26N 39°53' W 075°11'0 0.0
2018-Jun-10 19:59N 39°53' W 075°11'0 0.0
2018-Jun-10 19:25N 39°53' W 075°11'0 0.0
2018-Jun-10 18:58N 39°53' W 075°11'0 0.0
2018-Jun-10 18:24N 39°53' W 075°11'0 0.0
2018-Jun-10 17:58N 39°53' W 075°11'0 0.3
2018-Jun-10 17:28N 39°53' W 075°11'2 4.2
2018-Jun-10 16:56N 39°54' W 075°08'0 0.6
2018-Jun-10 16:23N 39°54' W 075°08'0 0.6
2018-Jun-10 15:59N 39°54' W 075°08'3 6.1
2018-Jun-10 15:28N 39°53' W 075°12'2 4.6
2018-Jun-10 14:58N 39°51' W 075°14'1 1.5
2018-Jun-10 14:28N 39°52' W 075°14'5 5.0
2018-Jun-10 13:29N 39°54' W 075°08'0 0.0
2018-Jun-10 12:56N 39°54' W 075°08'0 0.0
2018-Jun-10 12:30N 39°54' W 075°08'0 0.0
2018-Jun-10 11:59N 39°54' W 075°08'0 0.4
2018-Jun-10 11:29N 39°54' W 075°08'0 0.2
2018-Jun-10 10:59N 39°54' W 075°08'3 5.6
2018-Jun-10 10:28N 39°54' W 075°12'0 0.0
2018-Jun-10 09:58N 39°54' W 075°12'0 0.0
2018-Jun-10 09:29N 39°54' W 075°12'0 0.0
2018-Jun-10 09:00N 39°54' W 075°12'0 0.0
2018-Jun-10 08:29N 39°54' W 075°12'0 0.0
2018-Jun-10 07:58N 39°54' W 075°12'0 0.0
2018-Jun-10 07:30N 39°54' W 075°12'0 0.0
2018-Jun-10 06:58N 39°54' W 075°12'0 0.0
2018-Jun-10 06:26N 39°54' W 075°12'0 0.0
2018-Jun-10 05:50N 39°54' W 075°12'0 0.0
2018-Jun-10 05:30N 39°54' W 075°12'0 0.0
2018-Jun-10 04:57N 39°54' W 075°12'0 0.0
2018-Jun-10 04:30N 39°54' W 075°12'0 0.0
2018-Jun-10 03:56N 39°54' W 075°12'0 0.0
2018-Jun-10 03:24N 39°54' W 075°12'0 0.0
2018-Jun-10 03:00N 39°54' W 075°12'0 0.0
2018-Jun-10 02:30N 39°54' W 075°12'0 0.0
2018-Jun-10 01:53N 39°54' W 075°12'0 0.0
2018-Jun-10 01:28N 39°54' W 075°12'0 0.0
2018-Jun-10 00:58N 39°54' W 075°12'0 0.0
2018-Jun-10 00:25N 39°54' W 075°12'0 0.0
2018-Jun-09 23:55N 39°54' W 075°12'0 0.6
2018-Jun-09 23:24N 39°53' W 075°12'2 3.8
2018-Jun-09 22:52N 39°52' W 075°13'2 5.1
2018-Jun-09 22:26N 39°54' W 075°12'0 0.0
2018-Jun-09 22:00N 39°54' W 075°12'0 0.0
2018-Jun-09 21:25N 39°54' W 075°12'0 0.0
2018-Jun-09 21:00N 39°54' W 075°12'0 0.0
2018-Jun-09 20:30N 39°54' W 075°12'0 0.0
2018-Jun-09 19:58N 39°54' W 075°12'0 0.0
2018-Jun-09 19:27N 39°54' W 075°12'0 0.0
2018-Jun-09 18:53N 39°54' W 075°12'0 0.0
2018-Jun-09 18:30N 39°54' W 075°12'0 0.0
2018-Jun-09 17:58N 39°54' W 075°12'0 0.0
2018-Jun-09 17:26N 39°54' W 075°12'0 0.0
2018-Jun-09 17:00N 39°54' W 075°12'0 0.0
2018-Jun-09 16:29N 39°54' W 075°12'0 0.0
2018-Jun-09 15:57N 39°54' W 075°12'0 0.0
2018-Jun-09 14:58N 39°54' W 075°12'0 0.0
2018-Jun-09 14:28N 39°54' W 075°12'0 0.0
2018-Jun-09 13:58N 39°54' W 075°12'0 0.0
2018-Jun-09 13:30N 39°54' W 075°12'0 0.0
2018-Jun-09 13:00N 39°54' W 075°12'0 0.0
2018-Jun-09 12:27N 39°54' W 075°12'0 0.0
2018-Jun-09 11:59N 39°54' W 075°12'0 0.0
2018-Jun-09 11:29N 39°54' W 075°12'3 5.7
2018-Jun-09 11:00N 39°54' W 075°08'1 1.2
2018-Jun-09 10:29N 39°54' W 075°08'0 1.0
2018-Jun-09 10:00N 39°54' W 075°08'2 3.7
2018-Jun-09 09:27N 39°53' W 075°10'1 2.7
2018-Jun-09 08:59N 39°54' W 075°12'0 0.0
2018-Jun-09 08:30N 39°54' W 075°12'0 0.0
2018-Jun-09 07:59N 39°54' W 075°12'0 0.0
2018-Jun-09 07:29N 39°54' W 075°12'0 0.0
2018-Jun-09 07:00N 39°54' W 075°12'0 0.0
2018-Jun-09 06:30N 39°54' W 075°12'0 0.0
2018-Jun-09 06:00N 39°54' W 075°12'0 0.0
2018-Jun-09 05:30N 39°54' W 075°12'5 9.3
2018-Jun-09 05:00N 39°51' W 075°17'3 5.9
2018-Jun-09 04:30N 39°51' W 075°20'0 0.2
2018-Jun-09 04:01N 39°51' W 075°20'2 4.9
2018-Jun-09 03:30N 39°50' W 075°23'0 0.0
2018-Jun-09 03:01N 39°50' W 075°23'0 0.0
2018-Jun-09 02:30N 39°50' W 075°23'0 0.0
2018-Jun-09 02:00N 39°50' W 075°23'0 0.0
2018-Jun-09 01:30N 39°50' W 075°23'0 0.0
2018-Jun-09 01:00N 39°50' W 075°23'0 0.0
2018-Jun-09 00:31N 39°50' W 075°23'0 0.0
2018-Jun-09 00:01N 39°50' W 075°23'0 0.0
2018-Jun-08 23:30N 39°50' W 075°23'0 0.0
2018-Jun-08 23:00N 39°50' W 075°23'0 0.0
2018-Jun-08 22:30N 39°50' W 075°23'0 0.0
2018-Jun-08 22:00N 39°50' W 075°23'0 0.0
2018-Jun-08 21:31N 39°50' W 075°23'0 0.0
2018-Jun-08 21:00N 39°50' W 075°23'0 0.0
2018-Jun-08 20:30N 39°50' W 075°23'0 0.0
2018-Jun-08 20:01N 39°50' W 075°23'0 0.0
2018-Jun-08 19:30N 39°50' W 075°23'0 0.0
2018-Jun-08 19:00N 39°50' W 075°23'0 0.0
2018-Jun-08 18:30N 39°50' W 075°23'0 0.0
2018-Jun-08 18:00N 39°50' W 075°23'0 0.0
2018-Jun-08 17:30N 39°50' W 075°23'0 0.0
2018-Jun-08 17:00N 39°50' W 075°23'0 0.0
2018-Jun-08 16:30N 39°50' W 075°23'0 0.0
2018-Jun-08 16:01N 39°50' W 075°23'0 0.0
2018-Jun-08 15:30N 39°50' W 075°23'0 0.0
2018-Jun-08 15:00N 39°50' W 075°23'0 0.0
2018-Jun-08 14:30N 39°50' W 075°23'0 0.0
2018-Jun-08 14:00N 39°50' W 075°23'0 0.0
2018-Jun-08 13:30N 39°50' W 075°23'0 0.0
2018-Jun-08 13:00N 39°50' W 075°23'0 0.0
2018-Jun-08 12:30N 39°50' W 075°23'0 0.0
2018-Jun-08 12:00N 39°50' W 075°23'0 0.0
2018-Jun-08 11:30N 39°50' W 075°23'0 0.0
2018-Jun-08 11:00N 39°50' W 075°23'0 0.0
2018-Jun-08 10:30N 39°50' W 075°23'0 0.0
2018-Jun-08 10:00N 39°50' W 075°23'0 0.0
2018-Jun-08 09:30N 39°50' W 075°23'0 0.0
2018-Jun-08 09:00N 39°50' W 075°23'0 0.0
2018-Jun-08 08:30N 39°50' W 075°23'0 0.0
2018-Jun-08 08:00N 39°50' W 075°23'0 0.0
2018-Jun-08 07:30N 39°50' W 075°23'0 0.0
2018-Jun-08 07:00N 39°50' W 075°23'0 0.0
2018-Jun-08 06:30N 39°50' W 075°23'0 0.0
2018-Jun-08 06:00N 39°50' W 075°23'0 0.0
2018-Jun-08 05:30N 39°50' W 075°23'0 0.0
2018-Jun-08 05:00N 39°50' W 075°23'0 0.0
2018-Jun-08 04:30N 39°50' W 075°23'2 3.9
2018-Jun-08 04:00N 39°48' W 075°25'510.2
2018-Jun-08 03:30N 39°45' W 075°30'510.1
2018-Jun-08 03:00N 39°40' W 075°32'4 8.9
2018-Jun-08 02:30N 39°36' W 075°34'1 2.8
2018-Jun-08 02:00N 39°35' W 075°36'0 0.0
2018-Jun-08 01:30N 39°35' W 075°36'  
Track history (hours):
 
Tides and Currents Weather Stations Pressure Air Temp Water Temp Dewpoint Dewpoint Depression Visibility Wind Speed Wind Dir Waves Ship Positions

Robert E. Mcallister

Owner: McAllister Towing & Transportation, Staten Island, NY. More information available from US FCC via Universal Licensing System and Coast Guard Vessel Documentation Center.

Last reported at 2018-Jun-18 01:00 UTC. Time now 2018-Jun-18 01:23 UTC.
Position N 39°50' W 075°23'.

; draft 4.3 m.

Type: Tug. MMSI: 367091120.

Date/timePositionNaut miles runAvg speedWind from/ knotsBaromVisibWave heightAir tempDewpointWater temp
2018-Jun-18 01:00N 39°50' W 075°23'0 0.0
2018-Jun-18 00:30N 39°50' W 075°23'0 0.0
2018-Jun-18 00:01N 39°50' W 075°23'0 0.0
2018-Jun-17 23:30N 39°50' W 075°23'0 0.0
2018-Jun-17 23:00N 39°50' W 075°23'0 0.0
2018-Jun-17 22:30N 39°50' W 075°23'0 0.0
2018-Jun-17 22:00N 39°50' W 075°23'0 0.0
2018-Jun-17 21:31N 39°50' W 075°23'0 0.0
2018-Jun-17 21:00N 39°50' W 075°23'1 2.1
2018-Jun-17 20:30N 39°50' W 075°22'510.3
2018-Jun-17 20:00N 39°51' W 075°15'1 1.6
2018-Jun-17 19:31N 39°51' W 075°14'1 2.7
2018-Jun-17 19:00N 39°51' W 075°16'4 7.3
2018-Jun-17 18:31N 39°51' W 075°21'2 4.2
2018-Jun-17 18:01N 39°50' W 075°23'1 2.3
2018-Jun-17 17:29N 39°49' W 075°24'0 0.2
2018-Jun-17 17:00N 39°49' W 075°24'1 1.4
2018-Jun-17 16:06N 39°50' W 075°23'0 0.1
2018-Jun-17 16:00N 39°50' W 075°23'0 0.0
2018-Jun-17 15:30N 39°50' W 075°23'0 0.0
2018-Jun-17 15:00N 39°50' W 075°23'0 0.0
2018-Jun-17 14:30N 39°50' W 075°23'0 0.0
2018-Jun-17 14:00N 39°50' W 075°23'0 0.0
2018-Jun-17 13:31N 39°50' W 075°23'0 0.0
2018-Jun-17 13:00N 39°50' W 075°23'0 0.0
2018-Jun-17 12:30N 39°50' W 075°23'0 0.0
2018-Jun-17 12:00N 39°50' W 075°23'0 0.0
2018-Jun-17 11:30N 39°50' W 075°23'1 2.7
2018-Jun-17 11:00N 39°50' W 075°21'611.6
2018-Jun-17 10:30N 39°52' W 075°14'510.3
2018-Jun-17 10:00N 39°54' W 075°08'0 0.6
2018-Jun-17 09:30N 39°54' W 075°08'0 0.8
2018-Jun-17 09:00N 39°54' W 075°08'1 2.9
2018-Jun-17 08:31N 39°53' W 075°10'1 2.3
2018-Jun-17 08:00N 39°53' W 075°11'0 0.0
2018-Jun-17 07:30N 39°53' W 075°11'0 0.0
2018-Jun-17 07:00N 39°53' W 075°11'0 0.0
2018-Jun-17 06:30N 39°53' W 075°11'0 0.0
2018-Jun-17 06:00N 39°53' W 075°11'0 0.0
2018-Jun-17 05:31N 39°53' W 075°11'0 0.0
2018-Jun-17 05:00N 39°53' W 075°11'0 0.0
2018-Jun-17 04:31N 39°53' W 075°11'0 0.0
2018-Jun-17 04:00N 39°53' W 075°11'0 0.0
2018-Jun-17 03:30N 39°53' W 075°11'0 0.0
2018-Jun-17 03:00N 39°53' W 075°11'1 2.2
2018-Jun-17 02:30N 39°52' W 075°12'2 3.6
2018-Jun-17 02:00N 39°51' W 075°14'0 0.9
2018-Jun-17 01:30N 39°52' W 075°14'0 0.0
2018-Jun-17 01:01N 39°52' W 075°14'5 9.0
2018-Jun-17 00:30N 39°53' W 075°09'1 2.3
2018-Jun-17 00:01N 39°54' W 075°08'1 1.1
2018-Jun-16 23:30N 39°54' W 075°08'4 8.8
2018-Jun-16 23:00N 39°52' W 075°14'5 9.2
2018-Jun-16 22:31N 39°51' W 075°19'4 8.6
2018-Jun-16 22:00N 39°49' W 075°24'610.6
2018-Jun-16 21:27N 39°45' W 075°30'2 3.9
2018-Jun-16 20:59N 39°43' W 075°31'0 0.0
2018-Jun-16 20:31N 39°43' W 075°31'0 0.8
2018-Jun-16 20:00N 39°43' W 075°30'1 0.4
2018-Jun-16 18:25N 39°43' W 075°31'0 0.0
2018-Jun-16 16:20N 39°43' W 075°31'0 0.0
2018-Jun-16 15:43N 39°43' W 075°31'0 1.4
2018-Jun-16 15:30N 39°43' W 075°31'2 4.1
2018-Jun-16 15:00N 39°41' W 075°31'1 2.2
2018-Jun-16 14:30N 39°42' W 075°31'1 0.9
2018-Jun-16 13:57N 39°43' W 075°31'2 4.6
2018-Jun-16 13:30N 39°44' W 075°30'5 8.8
2018-Jun-16 12:55N 39°48' W 075°25'2 5.5
2018-Jun-16 12:30N 39°50' W 075°23'0 0.0
2018-Jun-16 12:00N 39°50' W 075°23'0 0.0
2018-Jun-16 11:30N 39°50' W 075°23'0 0.0
2018-Jun-16 11:01N 39°50' W 075°23'0 0.0
2018-Jun-16 10:31N 39°50' W 075°23'0 0.0
2018-Jun-16 10:00N 39°50' W 075°23'0 0.0
2018-Jun-16 09:31N 39°50' W 075°23'0 0.0
2018-Jun-16 09:00N 39°50' W 075°23'0 0.0
2018-Jun-16 08:31N 39°50' W 075°23'0 0.0
2018-Jun-16 08:00N 39°50' W 075°23'0 0.0
2018-Jun-16 07:31N 39°50' W 075°23'0 0.0
2018-Jun-16 07:01N 39°50' W 075°23'0 0.0
2018-Jun-16 06:30N 39°50' W 075°23'0 0.0
2018-Jun-16 06:01N 39°50' W 075°23'0 0.0
2018-Jun-16 05:30N 39°50' W 075°23'0 0.0
2018-Jun-16 05:00N 39°50' W 075°23'0 0.0
2018-Jun-16 04:29N 39°50' W 075°23'0 0.0
2018-Jun-16 04:00N 39°50' W 075°23'0 0.0
2018-Jun-16 03:30N 39°50' W 075°23'0 0.0
2018-Jun-16 03:00N 39°50' W 075°23'0 0.0
2018-Jun-16 02:30N 39°50' W 075°23'0 0.0
2018-Jun-16 02:00N 39°50' W 075°23'0 0.0
2018-Jun-16 01:30N 39°50' W 075°23'0 0.0
2018-Jun-16 01:00N 39°50' W 075°23'0 0.0
2018-Jun-16 00:30N 39°50' W 075°23'0 0.0
2018-Jun-16 00:00N 39°50' W 075°23'0 0.0
2018-Jun-15 23:31N 39°50' W 075°23'5 8.9
2018-Jun-15 22:56N 39°46' W 075°28'4 9.7
2018-Jun-15 22:30N 39°43' W 075°31'0 0.2
2018-Jun-15 21:58N 39°43' W 075°31'0 0.3
2018-Jun-15 21:30N 39°42' W 075°31'5 9.1
2018-Jun-15 21:01N 39°46' W 075°28'4 8.6
2018-Jun-15 20:30N 39°49' W 075°24'1 1.2
2018-Jun-15 19:56N 39°50' W 075°23'0 0.0
2018-Jun-15 19:30N 39°50' W 075°23'0 0.0
2018-Jun-15 19:00N 39°50' W 075°23'0 0.0
2018-Jun-15 18:30N 39°50' W 075°23'1 1.1
2018-Jun-15 18:00N 39°50' W 075°22'4 8.2
2018-Jun-15 17:30N 39°51' W 075°17'4 8.7
2018-Jun-15 17:01N 39°53' W 075°12'1 1.6
2018-Jun-15 16:31N 39°53' W 075°12'0 0.0
2018-Jun-15 16:01N 39°53' W 075°12'0 0.0
2018-Jun-15 15:30N 39°53' W 075°12'0 0.0
2018-Jun-15 15:00N 39°53' W 075°12'0 0.6
2018-Jun-15 14:30N 39°54' W 075°12'2 3.8
2018-Jun-15 14:00N 39°52' W 075°13'5 9.5
2018-Jun-15 13:30N 39°51' W 075°19'3 6.6
2018-Jun-15 13:01N 39°50' W 075°23'0 0.0
2018-Jun-15 12:30N 39°50' W 075°23'0 0.0
2018-Jun-15 12:00N 39°50' W 075°23'0 0.0
2018-Jun-15 11:30N 39°50' W 075°23'0 0.0
2018-Jun-15 11:01N 39°50' W 075°23'0 0.0
2018-Jun-15 10:30N 39°50' W 075°23'0 0.0
2018-Jun-15 10:00N 39°50' W 075°23'0 0.0
2018-Jun-15 09:30N 39°50' W 075°23'0 0.0
2018-Jun-15 09:00N 39°50' W 075°23'0 0.0
2018-Jun-15 08:30N 39°50' W 075°23'0 0.0
2018-Jun-15 08:01N 39°50' W 075°23'0 0.0
2018-Jun-15 07:31N 39°50' W 075°23'0 0.0
2018-Jun-15 07:01N 39°50' W 075°23'0 0.0
2018-Jun-15 06:31N 39°50' W 075°23'3 5.6
2018-Jun-15 06:00N 39°48' W 075°26'611.4
2018-Jun-15 05:31N 39°43' W 075°30'1 1.7
2018-Jun-15 05:01N 39°43' W 075°31'2 3.9
2018-Jun-15 04:30N 39°41' W 075°31'2 3.5
2018-Jun-15 04:00N 39°42' W 075°31'1 1.4
2018-Jun-15 03:30N 39°43' W 075°31'0 0.0
2018-Jun-15 03:00N 39°43' W 075°31'0 0.0
2018-Jun-15 02:30N 39°43' W 075°31'0 0.0
2018-Jun-15 02:00N 39°43' W 075°31'0 0.0
2018-Jun-15 01:30N 39°43' W 075°31'0 0.0
2018-Jun-15 01:00N 39°43' W 075°31'0 0.0
2018-Jun-15 00:30N 39°43' W 075°31'0 0.0
2018-Jun-15 00:00N 39°43' W 075°31'0 0.0
2018-Jun-14 23:30N 39°43' W 075°31'0 0.0
2018-Jun-14 23:00N 39°43' W 075°31'0 0.0
2018-Jun-14 22:29N 39°43' W 075°31'0 0.0
2018-Jun-14 22:00N 39°43' W 075°31'0 0.0
2018-Jun-14 21:30N 39°43' W 075°31'0 0.0
2018-Jun-14 20:59N 39°43' W 075°31'0 0.0
2018-Jun-14 20:30N 39°43' W 075°31'0 0.0
2018-Jun-14 20:00N 39°43' W 075°31'0 0.0
2018-Jun-14 19:30N 39°43' W 075°31'0 0.5
2018-Jun-14 19:00N 39°43' W 075°31'0 0.1
2018-Jun-14 18:30N 39°43' W 075°31'0 0.0
2018-Jun-14 18:00N 39°43' W 075°31'0 0.5
2018-Jun-14 17:30N 39°43' W 075°31'4 7.6
2018-Jun-14 17:00N 39°46' W 075°28'4 8.0
2018-Jun-14 16:30N 39°49' W 075°24'1 2.6
2018-Jun-14 16:00N 39°50' W 075°23'0 0.0
2018-Jun-14 15:30N 39°50' W 075°23'0 0.0
2018-Jun-14 15:00N 39°50' W 075°23'0 0.0
2018-Jun-14 14:30N 39°50' W 075°23'0 0.0
2018-Jun-14 14:00N 39°50' W 075°23'0 0.0
2018-Jun-14 13:30N 39°50' W 075°23'0 0.0
2018-Jun-14 13:00N 39°50' W 075°23'0 0.0
2018-Jun-14 12:30N 39°50' W 075°23'0 0.0
2018-Jun-14 12:00N 39°50' W 075°23'0 0.0
2018-Jun-14 11:31N 39°50' W 075°23'0 0.0
2018-Jun-14 11:00N 39°50' W 075°23'0 0.0
2018-Jun-14 10:30N 39°50' W 075°23'0 0.0
2018-Jun-14 10:00N 39°50' W 075°23'0 0.0
2018-Jun-14 09:30N 39°50' W 075°23'0 0.0
2018-Jun-14 09:00N 39°50' W 075°23'0 0.0
2018-Jun-14 08:30N 39°50' W 075°23'4 8.4
2018-Jun-14 08:00N 39°47' W 075°27'5 9.7
2018-Jun-14 07:30N 39°43' W 075°31'0 0.1
2018-Jun-14 07:00N 39°43' W 075°31'0 0.1
2018-Jun-14 06:30N 39°43' W 075°31'1 1.1
2018-Jun-14 06:00N 39°43' W 075°30'1 1.4
2018-Jun-14 05:29N 39°43' W 075°31'0 0.0
2018-Jun-14 05:00N 39°43' W 075°31'4 7.4
2018-Jun-14 04:30N 39°46' W 075°28'4 9.0
2018-Jun-14 04:00N 39°49' W 075°24'1 1.9
2018-Jun-14 03:30N 39°50' W 075°23'0 0.0
2018-Jun-14 03:00N 39°50' W 075°23'0 0.0
2018-Jun-14 02:30N 39°50' W 075°23'0 0.0
2018-Jun-14 02:00N 39°50' W 075°23'0 0.0
2018-Jun-14 01:30N 39°50' W 075°23'0 0.0
2018-Jun-14 01:00N 39°50' W 075°23'0 0.0
2018-Jun-14 00:30N 39°50' W 075°23'0 0.0
2018-Jun-14 00:01N 39°50' W 075°23'0 0.0
2018-Jun-13 23:31N 39°50' W 075°23'0 0.0
2018-Jun-13 23:00N 39°50' W 075°23'0 0.0
2018-Jun-13 22:30N 39°50' W 075°23'0 0.0
2018-Jun-13 22:00N 39°50' W 075°23'0 0.0
2018-Jun-13 21:30N 39°50' W 075°23'0 0.0
2018-Jun-13 21:00N 39°50' W 075°23'0 0.0
2018-Jun-13 20:30N 39°50' W 075°23'0 0.0
2018-Jun-13 20:01N 39°50' W 075°23'0 0.0
2018-Jun-13 19:30N 39°50' W 075°23'0 0.0
2018-Jun-13 19:00N 39°50' W 075°23'0 0.0
2018-Jun-13 18:30N 39°50' W 075°23'0 0.0
2018-Jun-13 18:00N 39°50' W 075°23'0 0.0
2018-Jun-13 17:31N 39°50' W 075°23'0 0.0
2018-Jun-13 17:00N 39°50' W 075°23'2 4.8
2018-Jun-13 16:30N 39°51' W 075°20'0 0.2
2018-Jun-13 16:00N 39°51' W 075°20'4 7.8
2018-Jun-13 15:30N 39°49' W 075°24'0 0.3
2018-Jun-13 15:00N 39°49' W 075°24'0 0.0
2018-Jun-13 14:30N 39°49' W 075°24'0 0.0
2018-Jun-13 14:00N 39°49' W 075°24'3 5.7
2018-Jun-13 13:30N 39°50' W 075°21'4 8.9
2018-Jun-13 13:00N 39°51' W 075°15'4 7.8
2018-Jun-13 12:30N 39°54' W 075°12'0 0.0
2018-Jun-13 12:00N 39°54' W 075°12'0 0.0
2018-Jun-13 11:30N 39°54' W 075°12'0 0.0
2018-Jun-13 11:00N 39°54' W 075°12'0 0.0
2018-Jun-13 10:30N 39°54' W 075°12'0 0.0
2018-Jun-13 10:00N 39°54' W 075°12'0 0.0
2018-Jun-13 09:30N 39°54' W 075°12'0 0.0
2018-Jun-13 09:00N 39°54' W 075°12'0 0.0
2018-Jun-13 08:30N 39°54' W 075°12'0 0.0
2018-Jun-13 08:01N 39°54' W 075°12'0 0.0
2018-Jun-13 07:30N 39°54' W 075°12'0 0.0
2018-Jun-13 07:01N 39°54' W 075°12'0 0.0
2018-Jun-13 06:30N 39°54' W 075°12'0 0.0
2018-Jun-13 06:00N 39°54' W 075°12'0 0.0
2018-Jun-13 05:30N 39°54' W 075°12'0 0.0
2018-Jun-13 05:00N 39°54' W 075°12'0 0.0
2018-Jun-13 04:30N 39°54' W 075°12'0 0.0
2018-Jun-13 04:00N 39°54' W 075°12'0 0.0
2018-Jun-13 03:30N 39°54' W 075°12'0 0.4
2018-Jun-13 03:00N 39°54' W 075°12'0 0.0
2018-Jun-13 02:30N 39°54' W 075°12'612.0
2018-Jun-13 02:01N 39°51' W 075°19'3 6.9
2018-Jun-13 01:30N 39°50' W 075°23'0 0.0
2018-Jun-13 01:00N 39°50' W 075°23'0 0.0
2018-Jun-13 00:30N 39°50' W 075°23'0 0.0
2018-Jun-13 00:00N 39°50' W 075°23'0 0.0
2018-Jun-12 23:31N 39°50' W 075°23'0 0.0
2018-Jun-12 23:00N 39°50' W 075°23'0 0.0
2018-Jun-12 22:31N 39°50' W 075°23'0 0.0
2018-Jun-12 22:00N 39°50' W 075°23'0 0.0
2018-Jun-12 21:30N 39°50' W 075°23'0 0.0
2018-Jun-12 21:00N 39°50' W 075°23'0 0.0
2018-Jun-12 20:30N 39°50' W 075°23'0 0.0
2018-Jun-12 20:00N 39°50' W 075°23'0 0.0
2018-Jun-12 19:31N 39°50' W 075°23'0 0.0
2018-Jun-12 19:00N 39°50' W 075°23'0 0.0
2018-Jun-12 18:30N 39°50' W 075°23'0 0.0
2018-Jun-12 18:00N 39°50' W 075°23'0 0.0
2018-Jun-12 17:30N 39°50' W 075°23'0 0.0
2018-Jun-12 17:00N 39°50' W 075°23'0 0.0
2018-Jun-12 16:30N 39°50' W 075°23'0 0.0
2018-Jun-12 16:01N 39°50' W 075°23'0 0.0
2018-Jun-12 15:30N 39°50' W 075°23'1 2.9
2018-Jun-12 15:00N 39°49' W 075°24'0 0.1
2018-Jun-12 14:30N 39°49' W 075°24'1 2.5
2018-Jun-12 14:00N 39°48' W 075°26'0 0.9
2018-Jun-12 13:30N 39°48' W 075°25'2 4.4
2018-Jun-12 13:00N 39°50' W 075°23'0 0.0
2018-Jun-12 12:30N 39°50' W 075°23'0 0.0
2018-Jun-12 12:00N 39°50' W 075°23'0 0.0
2018-Jun-12 11:30N 39°50' W 075°23'0 0.0
2018-Jun-12 11:00N 39°50' W 075°23'0 0.0
2018-Jun-12 10:31N 39°50' W 075°23'2 4.8
2018-Jun-12 10:00N 39°51' W 075°20'0 0.2
2018-Jun-12 09:30N 39°51' W 075°20'0 0.5
2018-Jun-12 09:00N 39°51' W 075°21'2 4.3
2018-Jun-12 08:30N 39°49' W 075°23'1 1.2
2018-Jun-12 08:00N 39°50' W 075°22'1 1.1
2018-Jun-12 07:30N 39°50' W 075°22'1 2.4
2018-Jun-12 07:00N 39°50' W 075°23'0 0.0
2018-Jun-12 06:30N 39°50' W 075°23'0 0.0
2018-Jun-12 06:00N 39°50' W 075°23'0 0.0
2018-Jun-12 05:30N 39°50' W 075°23'1 2.3
2018-Jun-12 05:00N 39°50' W 075°22'510.2
2018-Jun-12 04:30N 39°51' W 075°15'2 3.6
2018-Jun-12 04:00N 39°52' W 075°13'0 0.0
2018-Jun-12 03:30N 39°52' W 075°13'0 0.1
2018-Jun-12 03:00N 39°52' W 075°13'1 1.7
2018-Jun-12 02:30N 39°51' W 075°14'0 0.5
2018-Jun-12 02:00N 39°52' W 075°14'611.7
2018-Jun-12 01:30N 39°50' W 075°22'5 9.4
2018-Jun-12 01:00N 39°47' W 075°27'510.8
2018-Jun-12 00:30N 39°43' W 075°30'611.4
2018-Jun-12 00:00N 39°38' W 075°34'3 6.9
2018-Jun-11 23:30N 39°35' W 075°34'1 2.2
2018-Jun-11 23:00N 39°35' W 075°36'0 0.6
2018-Jun-11 22:31N 39°35' W 075°35'0 0.0
2018-Jun-11 22:00N 39°35' W 075°35'0 0.0
2018-Jun-11 21:30N 39°35' W 075°35'0 0.0
2018-Jun-11 21:01N 39°35' W 075°35'0 0.0
2018-Jun-11 20:31N 39°35' W 075°35'0 0.0
2018-Jun-11 20:00N 39°35' W 075°35'0 0.0
2018-Jun-11 19:30N 39°35' W 075°35'0 0.0
2018-Jun-11 19:00N 39°35' W 075°35'0 0.0
2018-Jun-11 18:31N 39°35' W 075°35'0 0.0
2018-Jun-11 18:00N 39°35' W 075°35'0 0.0
2018-Jun-11 17:30N 39°35' W 075°35'0 0.0
2018-Jun-11 17:00N 39°35' W 075°35'0 0.0
2018-Jun-11 16:30N 39°35' W 075°35'0 0.0
2018-Jun-11 16:00N 39°35' W 075°35'0 0.0
2018-Jun-11 15:30N 39°35' W 075°35'0 0.0
2018-Jun-11 15:00N 39°35' W 075°35'0 0.0
2018-Jun-11 14:30N 39°35' W 075°35'0 0.0
2018-Jun-11 14:00N 39°35' W 075°35'0 0.0
2018-Jun-11 13:30N 39°35' W 075°35'0 0.0
2018-Jun-11 13:00N 39°35' W 075°35'0 0.0
2018-Jun-11 12:30N 39°35' W 075°35'0 0.0
2018-Jun-11 12:00N 39°35' W 075°35'0 0.0
2018-Jun-11 11:30N 39°35' W 075°35'0 0.0
2018-Jun-11 11:00N 39°35' W 075°35'0 0.0
2018-Jun-11 10:30N 39°35' W 075°35'0 0.0
2018-Jun-11 10:00N 39°35' W 075°35'0 0.0
2018-Jun-11 09:30N 39°35' W 075°35'0 0.0
2018-Jun-11 09:00N 39°35' W 075°35'0 0.0
2018-Jun-11 08:31N 39°35' W 075°35'0 0.0
2018-Jun-11 08:00N 39°35' W 075°35'0 0.0
2018-Jun-11 07:30N 39°35' W 075°35'0 0.0
2018-Jun-11 07:00N 39°35' W 075°35'0 0.0
2018-Jun-11 06:30N 39°35' W 075°35'0 0.6
2018-Jun-11 06:00N 39°35' W 075°36'2 3.2
2018-Jun-11 05:30N 39°34' W 075°34'1 2.9
2018-Jun-11 05:00N 39°35' W 075°35'0 0.3
2018-Jun-11 04:30N 39°35' W 075°36'0 0.8
2018-Jun-11 04:00N 39°35' W 075°35'1 1.6
2018-Jun-11 03:30N 39°35' W 075°34'1 1.8
2018-Jun-11 03:00N 39°35' W 075°35'1 2.6
2018-Jun-11 02:30N 39°35' W 075°34'4 7.8
2018-Jun-11 02:00N 39°39' W 075°33'814.7
2018-Jun-11 01:27N 39°46' W 075°28'613.2
2018-Jun-11 00:59N 39°50' W 075°22'3 4.8
2018-Jun-11 00:25N 39°51' W 075°18'613.9
2018-Jun-10 23:58N 39°53' W 075°11'2 3.6
2018-Jun-10 23:25N 39°54' W 075°08'1 1.6
2018-Jun-10 22:53N 39°53' W 075°09'1 3.0
2018-Jun-10 22:27N 39°53' W 075°11'0 0.3
2018-Jun-10 21:56N 39°53' W 075°11'0 0.0
2018-Jun-10 21:30N 39°53' W 075°11'0 0.0
2018-Jun-10 20:55N 39°53' W 075°11'0 0.0
2018-Jun-10 20:26N 39°53' W 075°11'0 0.0
2018-Jun-10 19:59N 39°53' W 075°11'0 0.0
2018-Jun-10 19:25N 39°53' W 075°11'0 0.0
2018-Jun-10 18:58N 39°53' W 075°11'0 0.0
2018-Jun-10 18:24N 39°53' W 075°11'0 0.0
2018-Jun-10 17:58N 39°53' W 075°11'0 0.3
2018-Jun-10 17:28N 39°53' W 075°11'2 4.2
2018-Jun-10 16:56N 39°54' W 075°08'0 0.6
2018-Jun-10 16:23N 39°54' W 075°08'0 0.6
2018-Jun-10 15:59N 39°54' W 075°08'3 6.1
2018-Jun-10 15:28N 39°53' W 075°12'2 4.6
2018-Jun-10 14:58N 39°51' W 075°14'1 1.5
2018-Jun-10 14:28N 39°52' W 075°14'5 5.0
2018-Jun-10 13:29N 39°54' W 075°08'0 0.0
2018-Jun-10 12:56N 39°54' W 075°08'0 0.0
2018-Jun-10 12:30N 39°54' W 075°08'0 0.0
2018-Jun-10 11:59N 39°54' W 075°08'0 0.4
2018-Jun-10 11:29N 39°54' W 075°08'0 0.2
2018-Jun-10 10:59N 39°54' W 075°08'3 5.6
2018-Jun-10 10:28N 39°54' W 075°12'0 0.0
2018-Jun-10 09:58N 39°54' W 075°12'0 0.0
2018-Jun-10 09:29N 39°54' W 075°12'0 0.0
2018-Jun-10 09:00N 39°54' W 075°12'0 0.0
2018-Jun-10 08:29N 39°54' W 075°12'0 0.0
2018-Jun-10 07:58N 39°54' W 075°12'0 0.0
2018-Jun-10 07:30N 39°54' W 075°12'0 0.0
2018-Jun-10 06:58N 39°54' W 075°12'0 0.0
2018-Jun-10 06:26N 39°54' W 075°12'0 0.0
2018-Jun-10 05:50N 39°54' W 075°12'0 0.0
2018-Jun-10 05:30N 39°54' W 075°12'0 0.0
2018-Jun-10 04:57N 39°54' W 075°12'0 0.0
2018-Jun-10 04:30N 39°54' W 075°12'0 0.0
2018-Jun-10 03:56N 39°54' W 075°12'0 0.0
2018-Jun-10 03:24N 39°54' W 075°12'0 0.0
2018-Jun-10 03:00N 39°54' W 075°12'0 0.0
2018-Jun-10 02:30N 39°54' W 075°12'0 0.0
2018-Jun-10 01:53N 39°54' W 075°12'0 0.0
2018-Jun-10 01:28N 39°54' W 075°12'0 0.0
2018-Jun-10 00:58N 39°54' W 075°12'0 0.0
2018-Jun-10 00:25N 39°54' W 075°12'0 0.0
2018-Jun-09 23:55N 39°54' W 075°12'0 0.6
2018-Jun-09 23:24N 39°53' W 075°12'2 3.8
2018-Jun-09 22:52N 39°52' W 075°13'2 5.1
2018-Jun-09 22:26N 39°54' W 075°12'0 0.0
2018-Jun-09 22:00N 39°54' W 075°12'0 0.0
2018-Jun-09 21:25N 39°54' W 075°12'0 0.0
2018-Jun-09 21:00N 39°54' W 075°12'0 0.0
2018-Jun-09 20:30N 39°54' W 075°12'0 0.0
2018-Jun-09 19:58N 39°54' W 075°12'0 0.0
2018-Jun-09 19:27N 39°54' W 075°12'0 0.0
2018-Jun-09 18:53N 39°54' W 075°12'0 0.0
2018-Jun-09 18:30N 39°54' W 075°12'0 0.0
2018-Jun-09 17:58N 39°54' W 075°12'0 0.0
2018-Jun-09 17:26N 39°54' W 075°12'0 0.0
2018-Jun-09 17:00N 39°54' W 075°12'0 0.0
2018-Jun-09 16:29N 39°54' W 075°12'0 0.0
2018-Jun-09 15:57N 39°54' W 075°12'0 0.0
2018-Jun-09 14:58N 39°54' W 075°12'0 0.0
2018-Jun-09 14:28N 39°54' W 075°12'0 0.0
2018-Jun-09 13:58N 39°54' W 075°12'0 0.0
2018-Jun-09 13:30N 39°54' W 075°12'0 0.0
2018-Jun-09 13:00N 39°54' W 075°12'0 0.0
2018-Jun-09 12:27N 39°54' W 075°12'0 0.0
2018-Jun-09 11:59N 39°54' W 075°12'0 0.0
2018-Jun-09 11:29N 39°54' W 075°12'3 5.7
2018-Jun-09 11:00N 39°54' W 075°08'1 1.2
2018-Jun-09 10:29N 39°54' W 075°08'0 1.0
2018-Jun-09 10:00N 39°54' W 075°08'2 3.7
2018-Jun-09 09:27N 39°53' W 075°10'1 2.7
2018-Jun-09 08:59N 39°54' W 075°12'0 0.0
2018-Jun-09 08:30N 39°54' W 075°12'0 0.0
2018-Jun-09 07:59N 39°54' W 075°12'0 0.0
2018-Jun-09 07:29N 39°54' W 075°12'0 0.0
2018-Jun-09 07:00N 39°54' W 075°12'0 0.0
2018-Jun-09 06:30N 39°54' W 075°12'0 0.0
2018-Jun-09 06:00N 39°54' W 075°12'0 0.0
2018-Jun-09 05:30N 39°54' W 075°12'5 9.3
2018-Jun-09 05:00N 39°51' W 075°17'3 5.9
2018-Jun-09 04:30N 39°51' W 075°20'0 0.2
2018-Jun-09 04:01N 39°51' W 075°20'2 4.9
2018-Jun-09 03:30N 39°50' W 075°23'0 0.0
2018-Jun-09 03:01N 39°50' W 075°23'0 0.0
2018-Jun-09 02:30N 39°50' W 075°23'0 0.0
2018-Jun-09 02:00N 39°50' W 075°23'0 0.0
2018-Jun-09 01:30N 39°50' W 075°23'0 0.0
2018-Jun-09 01:00N 39°50' W 075°23'0 0.0
2018-Jun-09 00:31N 39°50' W 075°23'0 0.0
2018-Jun-09 00:01N 39°50' W 075°23'0 0.0
2018-Jun-08 23:30N 39°50' W 075°23'0 0.0
2018-Jun-08 23:00N 39°50' W 075°23'0 0.0
2018-Jun-08 22:30N 39°50' W 075°23'0 0.0
2018-Jun-08 22:00N 39°50' W 075°23'0 0.0
2018-Jun-08 21:31N 39°50' W 075°23'0 0.0
2018-Jun-08 21:00N 39°50' W 075°23'0 0.0
2018-Jun-08 20:30N 39°50' W 075°23'0 0.0
2018-Jun-08 20:01N 39°50' W 075°23'0 0.0
2018-Jun-08 19:30N 39°50' W 075°23'0 0.0
2018-Jun-08 19:00N 39°50' W 075°23'0 0.0
2018-Jun-08 18:30N 39°50' W 075°23'0 0.0
2018-Jun-08 18:00N 39°50' W 075°23'0 0.0
2018-Jun-08 17:30N 39°50' W 075°23'0 0.0
2018-Jun-08 17:00N 39°50' W 075°23'0 0.0
2018-Jun-08 16:30N 39°50' W 075°23'0 0.0
2018-Jun-08 16:01N 39°50' W 075°23'0 0.0
2018-Jun-08 15:30N 39°50' W 075°23'0 0.0
2018-Jun-08 15:00N 39°50' W 075°23'0 0.0
2018-Jun-08 14:30N 39°50' W 075°23'0 0.0
2018-Jun-08 14:00N 39°50' W 075°23'0 0.0
2018-Jun-08 13:30N 39°50' W 075°23'0 0.0
2018-Jun-08 13:00N 39°50' W 075°23'0 0.0
2018-Jun-08 12:30N 39°50' W 075°23'0 0.0
2018-Jun-08 12:00N 39°50' W 075°23'0 0.0
2018-Jun-08 11:30N 39°50' W 075°23'0 0.0
2018-Jun-08 11:00N 39°50' W 075°23'0 0.0
2018-Jun-08 10:30N 39°50' W 075°23'0 0.0
2018-Jun-08 10:00N 39°50' W 075°23'0 0.0
2018-Jun-08 09:30N 39°50' W 075°23'0 0.0
2018-Jun-08 09:00N 39°50' W 075°23'0 0.0
2018-Jun-08 08:30N 39°50' W 075°23'0 0.0
2018-Jun-08 08:00N 39°50' W 075°23'0 0.0
2018-Jun-08 07:30N 39°50' W 075°23'0 0.0
2018-Jun-08 07:00N 39°50' W 075°23'0 0.0
2018-Jun-08 06:30N 39°50' W 075°23'0 0.0
2018-Jun-08 06:00N 39°50' W 075°23'0 0.0
2018-Jun-08 05:30N 39°50' W 075°23'0 0.0
2018-Jun-08 05:00N 39°50' W 075°23'0 0.0
2018-Jun-08 04:30N 39°50' W 075°23'2 3.9
2018-Jun-08 04:00N 39°48' W 075°25'510.2
2018-Jun-08 03:30N 39°45' W 075°30'510.1
2018-Jun-08 03:00N 39°40' W 075°32'4 8.9
2018-Jun-08 02:30N 39°36' W 075°34'1 2.8
2018-Jun-08 02:00N 39°35' W 075°36'0 0.0
2018-Jun-08 01:30N 39°35' W 075°36'  

Dump ship's entire track history